TimeEET,TemperatureF,Dew PointF,Humidity,Sea Level PressureIn,VisibilityMPH,Wind Direction,Wind SpeedMPH,Gust SpeedMPH,PrecipitationIn,Events,Conditions,WindDirDegrees,DateUTC
12:20 AM,50.0,41.0,71,30.04,6.2,Variable,1.2,-,N/A,,Scattered Clouds,0,2012-11-01 22:20:00
12:50 AM,50.0,41.0,71,30.04,6.2,Variable,1.2,-,N/A,,Scattered Clouds,0,2012-11-01 22:50:00
1:20 AM,50.0,42.8,76,30.06,6.2,Variable,2.3,-,N/A,,Scattered Clouds,0,2012-11-01 23:20:00
1:50 AM,51.8,42.8,71,30.04,6.2,ESE,4.6,-,N/A,,Scattered Clouds,120,2012-11-01 23:50:00
2:00 AM,51,42,64,29.98,12,ESE,4.6,,,,Scattered Clouds,120,2012-11-02 00:00:00
2:20 AM,48.2,42.8,82,30.04,6.2,NNW,3.5,-,N/A,,Scattered Clouds,330,2012-11-02 00:20:00
2:50 AM,48.2,41.0,76,30.04,6.2,NNW,2.3,-,N/A,,Scattered Clouds,340,2012-11-02 00:50:00
3:20 AM,48.2,41.0,76,30.04,6.2,NW,4.6,-,N/A,,Scattered Clouds,310,2012-11-02 01:20:00
3:50 AM,48.2,41.0,76,30.04,6.2,Variable,1.2,-,N/A,,Scattered Clouds,0,2012-11-02 01:50:00
4:20 AM,50.0,42.8,76,30.04,6.2,Variable,1.2,-,N/A,,Scattered Clouds,0,2012-11-02 02:20:00
4:50 AM,50.0,42.8,76,30.04,6.2,Variable,2.3,-,N/A,,Scattered Clouds,0,2012-11-02 02:50:00
5:20 AM,50.0,42.8,76,30.06,6.2,Variable,1.2,-,N/A,,Scattered Clouds,0,2012-11-02 03:20:00
5:50 AM,51.8,42.8,71,30.06,6.2,Variable,1.2,-,N/A,,Scattered Clouds,0,2012-11-02 03:50:00
6:20 AM,48.2,42.8,82,30.06,6.2,Variable,2.3,-,N/A,,Scattered Clouds,0,2012-11-02 04:20:00
6:50 AM,48.2,41.0,76,30.06,6.2,WNW,4.6,-,N/A,,Scattered Clouds,290,2012-11-02 04:50:00
7:20 AM,50.0,42.8,76,30.06,6.2,Variable,1.2,-,N/A,,Scattered Clouds,0,2012-11-02 05:20:00
7:50 AM,51.8,42.8,71,30.06,6.2,Variable,1.2,-,N/A,,Scattered Clouds,0,2012-11-02 05:50:00
8:00 AM,51,43,65,30.04,12,SSE,1.2,,,,Partly Cloudy,160,2012-11-02 06:00:00
8:20 AM,51.8,42.8,71,30.06,6.2,ESE,3.5,-,N/A,,Scattered Clouds,120,2012-11-02 06:20:00
8:50 AM,55.4,42.8,63,30.06,6.2,Variable,2.3,-,N/A,,Scattered Clouds,0,2012-11-02 06:50:00
9:20 AM,57.2,44.6,63,30.06,6.2,Variable,2.3,-,N/A,,Scattered Clouds,0,2012-11-02 07:20:00
9:50 AM,59.0,44.6,59,30.06,6.2,North,4.6,-,N/A,,Scattered Clouds,350,2012-11-02 07:50:00
10:20 AM,62.6,44.6,52,30.06,6.2,East,1.2,-,N/A,,Scattered Clouds,80,2012-11-02 08:20:00
10:50 AM,66.2,46.4,49,30.06,6.2,SSE,5.8,-,N/A,,Scattered Clouds,160,2012-11-02 08:50:00
11:20 AM,68.0,44.6,43,30.04,6.2,South,10.4,-,N/A,,Scattered Clouds,190,2012-11-02 09:20:00
11:50 AM,68.0,46.4,46,30.04,6.2,SSW,11.5,-,N/A,,Scattered Clouds,200,2012-11-02 09:50:00
12:20 PM,69.8,46.4,43,30.04,6.2,SSW,12.7,-,N/A,,Scattered Clouds,210,2012-11-02 10:20:00
12:50 PM,69.8,44.6,40,30.01,6.2,SW,12.7,-,N/A,,Scattered Clouds,220,2012-11-02 10:50:00
1:20 PM,68.0,46.4,46,30.01,6.2,SW,12.7,-,N/A,,Scattered Clouds,230,2012-11-02 11:20:00
1:50 PM,69.8,46.4,43,30.01,6.2,SW,12.7,-,N/A,,Scattered Clouds,230,2012-11-02 11:50:00
2:00 PM,69,46,32,29.94,12,SW,12.7,,,,Partly Cloudy,230,2012-11-02 12:00:00
2:20 PM,69.8,46.4,43,30.01,6.2,WSW,11.5,-,N/A,,Scattered Clouds,240,2012-11-02 12:20:00
2:50 PM,69.8,46.4,43,30.01,6.2,WSW,9.2,-,N/A,,Scattered Clouds,240,2012-11-02 12:50:00
3:20 PM,69.8,46.4,43,30.01,6.2,SW,9.2,-,N/A,,Scattered Clouds,220,2012-11-02 13:20:00
3:50 PM,68.0,46.4,46,30.01,6.2,SSW,6.9,-,N/A,,Scattered Clouds,210,2012-11-02 13:50:00
4:20 PM,66.2,46.4,49,30.01,6.2,SSW,5.8,-,N/A,,Scattered Clouds,210,2012-11-02 14:20:00
4:50 PM,66.2,46.4,49,30.01,6.2,South,5.8,-,N/A,,Scattered Clouds,190,2012-11-02 14:50:00
5:20 PM,66.2,46.4,49,30.01,6.2,South,5.8,-,N/A,,Scattered Clouds,180,2012-11-02 15:20:00
5:50 PM,64.4,46.4,52,30.01,6.2,South,5.8,-,N/A,,Scattered Clouds,170,2012-11-02 15:50:00
6:20 PM,62.6,46.4,55,30.01,6.2,Variable,2.3,-,N/A,,Scattered Clouds,0,2012-11-02 16:20:00
6:50 PM,60.8,51.8,72,30.04,6.2,WNW,4.6,-,N/A,Rain,Light Rain Showers,290,2012-11-02 16:50:00
7:20 PM,59.0,53.6,82,30.04,6.2,NNE,6.9,-,N/A,Rain,Light Rain Showers,30,2012-11-02 17:20:00
7:50 PM,59.0,51.8,77,30.04,6.2,ESE,6.9,-,N/A,,Scattered Clouds,110,2012-11-02 17:50:00
8:00 PM,60,52,67,29.99,6,ESE,6.9,,,Rain,Light Rain Showers,110,2012-11-02 18:00:00
8:20 PM,59.0,50.0,72,30.04,6.2,East,4.6,-,N/A,,Scattered Clouds,90,2012-11-02 18:20:00
8:50 PM,55.4,53.6,94,30.04,3.7,WNW,5.8,-,N/A,Rain,Light Rain Showers,290,2012-11-02 18:50:00
9:20 PM,57.2,53.6,88,30.04,6.2,ENE,4.6,-,N/A,,Mostly Cloudy,60,2012-11-02 19:20:00
9:50 PM,55.4,53.6,94,30.04,6.2,NE,4.6,-,N/A,,Mostly Cloudy,40,2012-11-02 19:50:00
10:20 PM,55.4,51.8,88,30.04,6.2,NW,3.5,-,N/A,,Scattered Clouds,320,2012-11-02 20:20:00
10:50 PM,53.6,51.8,94,30.04,5.0,WNW,3.5,-,N/A,,Scattered Clouds,300,2012-11-02 20:50:00
11:20 PM,53.6,51.8,94,30.04,5.0,Variable,1.2,-,N/A,,Mostly Cloudy,0,2012-11-02 21:20:00
11:50 PM,53.6,51.8,94,30.04,5.0,Variable,1.2,-,N/A,,Mostly Cloudy,0,2012-11-02 21:50:00